** WELKOM OP ONZE WEBSITE MET ACTUELE WEERDATA VANUIT IZEGEM **
Het weer levert geen direct gevaar op.    Er zijn geen waarschuwingen afgegeven.

Weercam te Izegem Meer informatie Weercam te Izegem


Lokaal brand risico:
FWI


Regionaal brand risico: Meer informatie


Steun ons initiatief via een kleine donatie!



METAR rapporten vliegvelden

   
EBOS - Oostende Airport, Belgium
Afstand tot: NW 39 km
Gewijzigd: 21-02-2020 12:20
Licht bewolkt  
Licht bewolkt  
   Wind: ZZW 27.8 km/h
Wind: ZZW 27.8 km/h
Temperatuur: 8°C
Voelt als: 4°C
Dauwpunt: 5°C
Vochtigheid: 82%
Barometer: 1026 hPa
Bewolking: Few Clouds
Zicht: meer dan 10 km
Bewolking: Licht bewolkt 2000 ft
EBOS 211120Z 21015KT 9999 FEW020 08/05 Q1026 NOSIG
LFQQ - Lille/Lesquin, France
Afstand tot: Z 40 km
Gewijzigd: 21-02-2020 12:30
Grotendeels bewolkt  
Grotendeels bewolkt  
   Wind: ZW 25.9 km/h
Wind: ZW 25.9 km/h
Temperatuur: 8°C
Voelt als: 4°C
Dauwpunt: 4°C
Vochtigheid: 76%
Barometer: 1027 hPa
Bewolking: Mostly Cloudy
Zicht: meer dan 10 km
Bewolking: Gedeeltelijk bewolkt 2100 ft,
Grotendeels bewolkt 3800 ft,
Grotendeels bewolkt 13000 ft
LFQQ 211130Z AUTO 22014KT 9999 SCT021 BKN038 BKN130 08/04 Q1027 NOSIG
EBFN - Koksijde (bel-Af, Belgium
Afstand tot: WNW 43 km
Gewijzigd: 21-02-2020 12:25
Grotendeels bewolkt  
Grotendeels bewolkt  
   Wind: ZZW 27.8 km/h
Wind: ZZW 27.8 km/h
Temperatuur: 8°C
Voelt als: 4°C
Dauwpunt: 6°C
Vochtigheid: 87%
Barometer: 1026 hPa
Bewolking: Mostly Cloudy
Zicht: meer dan 10 km
Bewolking: Licht bewolkt 2400 ft,
Grotendeels bewolkt 18000 ft
EBFN 211125Z 21015KT 9999 FEW024 BKN180 08/06 Q1026 BLU BLU TEMPO WHT
EBCV - Chievres Ab, Belgium
Afstand tot: ZO 59 km
Gewijzigd: 21-02-2020 12:25
Licht bewolkt  
Licht bewolkt  
   Wind: ZW 27.8 km/h
Wind: ZW 27.8 km/h
Temperatuur: 8°C
Voelt als: 4°C
Dauwpunt: 4°C
Vochtigheid: 76%
Barometer: 1028 hPa
Bewolking: Few Clouds
Zicht: meer dan 10 km
Bewolking: Licht bewolkt 1900 ft
EBCV 211125Z AUTO 23015KT 9999 FEW019/// 08/04 Q1028 BLU
EHFS - Vlissingen, Netherlands
Afstand tot: NNO 65 km
Gewijzigd: 21-02-2020 12:25
Gedeeltelijk bewolkt  
Gedeeltelijk bewolkt  
   Wind: ZW 38.9 km/h
Wind: ZW 38.9 km/h
Temperatuur: 8°C
Voelt als: 3°C
Dauwpunt: 4°C
Vochtigheid: 76%
Barometer: 1025 hPa
Bewolking: Partly Cloudy
Zicht: meer dan 10 km
Bewolking: Licht bewolkt 2000 ft,
Gedeeltelijk bewolkt 2500 ft
EHFS 211125Z AUTO 22021KT 9999 FEW020/// SCT025/// 08/04 Q1025
EBBR - Brussels Nationa, Belgium
Afstand tot: O 91 km
Gewijzigd: 21-02-2020 12:20
Licht bewolkt  
Licht bewolkt  
   Wind: ZW 31.5 km/h
Wind: ZW 31.5 km/h
Temperatuur: 8°C
Voelt als: 4°C
Dauwpunt: 3°C
Vochtigheid: 71%
Barometer: 1027 hPa
Bewolking: Few Clouds
Zicht: meer dan 10 km
Bewolking: Licht bewolkt 2700 ft
EBBR 211120Z 23017KT 9999 FEW027 08/03 Q1027 TEMPO 23015G25KT
EBAW - Antwerp/Deurne, Belgium
Afstand tot: ONO 94 km
Gewijzigd: 21-02-2020 12:20
Licht bewolkt  
Licht bewolkt  
   Wind: ZW 24.1 km/h
Wind: ZW 24.1 km/h
Temperatuur: 8°C
Voelt als: 4°C
Dauwpunt: 3°C
Vochtigheid: 71%
Barometer: 1027 hPa
Bewolking: Few Clouds
Zicht: meer dan 10 km
Bewolking: Licht bewolkt 2500 ft
EBAW 211120Z 23013KT 9999 FEW025 08/03 Q1027 NOSIG
EHWO - Woensdrecht Rnla, Netherlands
Afstand tot: NO 98 km
Gewijzigd: 21-02-2020 12:25
Bewolking  
Bewolking  
   Wind: WZW 25.9 km/h
Wind: WZW 25.9 km/h
Temperatuur: 8°C
Voelt als: 4°C
Dauwpunt: 4°C
Vochtigheid: 76%
Barometer: 1025 hPa
Bewolking: Overcast
Zicht: meer dan 10 km
Bewolking: Grotendeels bewolkt 9100 ft,
Bewolking 10000 ft
EHWO 211125Z AUTO 24014KT 9999 BKN091 OVC100 08/04 Q1025 BLU 22012KT 9999 FEW025
EBCI - Charleroi/Gossel, Belgium
Afstand tot: OZO 102 km
Gewijzigd: 21-02-2020 12:20
Gedeeltelijk bewolkt  
Gedeeltelijk bewolkt  
   Wind: WZW 27.8 km/h
Wind: WZW 27.8 km/h
Temperatuur: 7°C
Voelt als: 3°C
Dauwpunt: 3°C
Vochtigheid: 76%
Barometer: 1028 hPa
Bewolking: Partly Cloudy
Zicht: meer dan 10 km
Bewolking: Licht bewolkt 1900 ft,
Gedeeltelijk bewolkt 3200 ft
EBCI 211120Z 24015KT 9999 FEW019 SCT032 07/03 Q1028 NOSIG

Script ontwikkeld door  Saratoga-weather.org Aangepast voor de template door  Weerstation Leuven